Antelope, Texas
Current Conditions -  °F | °C
As of 2:50 AM on Sunday 26 Oct 2014 (Local Time) from KRPH Reporting Station
Clear Clear  
Wind Chill: 21°   Ceiling: Unl
Heat Index: 21°   Visibility: 10mi
Dew Point: 14°   Wind: 5mph
Humidity: 63%   Direction: 170°S
Pressure: 30"   Gusts: NA
Location:  33.4259°N, 98.383°W
Report Text: KRPH 260750Z AUTO 17004KT 10SM CLR 22/14 A3000 RMK AO2 T02150141
Loading
Personal Weather Stations






























Interactive Weather Map
Tropical Storm Tracking
New forecast layout! Learn more

10-Day Weather Forecast

Advertisements
Track Severe Weather on mobile